sensor_id;sensor_type;location;lat;lon;timestamp;P1;durP1;ratioP1;P2;durP2;ratioP2
609;SDS011;292;48.800;9.216;2022-10-16T00:01:07;2.50;;;1.50;;
609;SDS011;292;48.800;9.216;2022-10-16T00:03:38;6.83;;;1.57;;
609;SDS011;292;48.800;9.216;2022-10-16T00:06:06;3.80;;;1.53;;
609;SDS011;292;48.800;9.216;2022-10-16T00:08:34;2.73;;;1.83;;
609;SDS011;292;48.800;9.216;2022-10-16T00:11:05;2.13;;;1.63;;
609;SDS011;292;48.800;9.216;2022-10-16T00:13:33;3.10;;;1.70;;
609;SDS011;292;48.800;9.216;2022-10-16T00:16:02;2.30;;;1.60;;
609;SDS011;292;48.800;9.216;2022-10-16T00:18:29;2.77;;;1.67;;
609;SDS011;292;48.800;9.216;2022-10-16T00:21:01;3.77;;;1.90;;
609;SDS011;292;48.800;9.216;2022-10-16T00:23:29;8.47;;;2.40;;
609;SDS011;292;48.800;9.216;2022-10-16T00:25:57;3.27;;;1.70;;
609;SDS011;292;48.800;9.216;2022-10-16T00:28:26;3.83;;;2.10;;
609;SDS011;292;48.800;9.216;2022-10-16T00:30:54;4.33;;;2.03;;
609;SDS011;292;48.800;9.216;2022-10-16T00:33:21;4.47;;;2.20;;
609;SDS011;292;48.800;9.216;2022-10-16T00:35:48;2.80;;;1.67;;
609;SDS011;292;48.800;9.216;2022-10-16T00:38:16;6.33;;;2.00;;
609;SDS011;292;48.800;9.216;2022-10-16T00:40:43;3.20;;;1.83;;
609;SDS011;292;48.800;9.216;2022-10-16T00:43:12;2.83;;;1.63;;
609;SDS011;292;48.800;9.216;2022-10-16T00:45:42;2.27;;;1.50;;
609;SDS011;292;48.800;9.216;2022-10-16T00:48:11;5.30;;;1.53;;
609;SDS011;292;48.800;9.216;2022-10-16T00:50:39;3.10;;;1.60;;
609;SDS011;292;48.800;9.216;2022-10-16T00:53:08;1.57;;;1.20;;
609;SDS011;292;48.800;9.216;2022-10-16T00:55:38;7.43;;;1.83;;
609;SDS011;292;48.800;9.216;2022-10-16T00:58:05;3.40;;;1.90;;
609;SDS011;292;48.800;9.216;2022-10-16T01:00:32;5.40;;;1.83;;
609;SDS011;292;48.800;9.216;2022-10-16T01:03:01;9.37;;;2.20;;
609;SDS011;292;48.800;9.216;2022-10-16T01:05:30;4.97;;;2.07;;
609;SDS011;292;48.800;9.216;2022-10-16T01:08:08;2.73;;;1.90;;
609;SDS011;292;48.800;9.216;2022-10-16T01:10:40;7.30;;;1.70;;
609;SDS011;292;48.800;9.216;2022-10-16T01:13:19;4.10;;;1.97;;
609;SDS011;292;48.800;9.216;2022-10-16T01:15:52;3.10;;;1.90;;
609;SDS011;292;48.800;9.216;2022-10-16T01:18:25;2.57;;;1.70;;
609;SDS011;292;48.800;9.216;2022-10-16T01:21:01;4.40;;;1.73;;
609;SDS011;292;48.800;9.216;2022-10-16T01:23:34;3.43;;;2.30;;
609;SDS011;292;48.800;9.216;2022-10-16T01:26:12;7.83;;;2.13;;
609;SDS011;292;48.800;9.216;2022-10-16T01:28:49;5.70;;;1.77;;
609;SDS011;292;48.800;9.216;2022-10-16T01:31:22;4.33;;;1.80;;
609;SDS011;292;48.800;9.216;2022-10-16T01:33:53;3.30;;;1.60;;
609;SDS011;292;48.800;9.216;2022-10-16T01:36:25;1.90;;;1.50;;
609;SDS011;292;48.800;9.216;2022-10-16T01:38:56;3.70;;;1.50;;
609;SDS011;292;48.800;9.216;2022-10-16T01:41:28;3.73;;;1.70;;
609;SDS011;292;48.800;9.216;2022-10-16T01:44:01;12.63;;;2.23;;
609;SDS011;292;48.800;9.216;2022-10-16T01:46:31;4.37;;;1.80;;
609;SDS011;292;48.800;9.216;2022-10-16T01:49:01;2.77;;;1.80;;
609;SDS011;292;48.800;9.216;2022-10-16T01:51:29;6.20;;;1.70;;
609;SDS011;292;48.800;9.216;2022-10-16T01:53:57;5.13;;;2.13;;
609;SDS011;292;48.800;9.216;2022-10-16T01:56:26;5.83;;;2.10;;
609;SDS011;292;48.800;9.216;2022-10-16T01:58:55;8.43;;;1.77;;
609;SDS011;292;48.800;9.216;2022-10-16T02:01:29;6.60;;;2.10;;
609;SDS011;292;48.800;9.216;2022-10-16T02:04:01;2.43;;;1.67;;
609;SDS011;292;48.800;9.216;2022-10-16T02:06:33;8.83;;;2.13;;
609;SDS011;292;48.800;9.216;2022-10-16T02:09:01;2.60;;;1.43;;
609;SDS011;292;48.800;9.216;2022-10-16T02:11:28;7.90;;;1.97;;
609;SDS011;292;48.800;9.216;2022-10-16T02:13:55;4.07;;;2.33;;
609;SDS011;292;48.800;9.216;2022-10-16T02:16:34;8.53;;;1.90;;
609;SDS011;292;48.800;9.216;2022-10-16T02:19:02;3.93;;;1.80;;
609;SDS011;292;48.800;9.216;2022-10-16T02:21:32;3.00;;;1.90;;
609;SDS011;292;48.800;9.216;2022-10-16T02:24:07;3.87;;;2.27;;
609;SDS011;292;48.800;9.216;2022-10-16T02:26:40;5.17;;;1.63;;
609;SDS011;292;48.800;9.216;2022-10-16T02:29:12;7.40;;;2.07;;
609;SDS011;292;48.800;9.216;2022-10-16T02:31:45;5.07;;;2.20;;
609;SDS011;292;48.800;9.216;2022-10-16T02:34:16;3.60;;;1.93;;
609;SDS011;292;48.800;9.216;2022-10-16T02:36:44;5.00;;;2.13;;
609;SDS011;292;48.800;9.216;2022-10-16T02:39:14;4.10;;;1.70;;
609;SDS011;292;48.800;9.216;2022-10-16T02:41:42;5.93;;;2.10;;
609;SDS011;292;48.800;9.216;2022-10-16T02:44:09;4.73;;;2.40;;
609;SDS011;292;48.800;9.216;2022-10-16T02:46:36;3.87;;;2.33;;
609;SDS011;292;48.800;9.216;2022-10-16T02:49:04;4.10;;;2.20;;
609;SDS011;292;48.800;9.216;2022-10-16T02:51:31;12.33;;;1.90;;
609;SDS011;292;48.800;9.216;2022-10-16T02:53:58;5.10;;;2.50;;
609;SDS011;292;48.800;9.216;2022-10-16T02:56:25;5.80;;;1.97;;
609;SDS011;292;48.800;9.216;2022-10-16T02:58:52;4.37;;;1.77;;
609;SDS011;292;48.800;9.216;2022-10-16T03:01:19;2.27;;;1.97;;
609;SDS011;292;48.800;9.216;2022-10-16T03:03:47;2.97;;;1.70;;
609;SDS011;292;48.800;9.216;2022-10-16T03:06:15;6.83;;;1.57;;
609;SDS011;292;48.800;9.216;2022-10-16T03:08:42;2.23;;;1.70;;
609;SDS011;292;48.800;9.216;2022-10-16T03:11:09;4.77;;;1.50;;
609;SDS011;292;48.800;9.216;2022-10-16T03:13:36;4.20;;;1.90;;
609;SDS011;292;48.800;9.216;2022-10-16T03:16:03;4.73;;;1.50;;
609;SDS011;292;48.800;9.216;2022-10-16T03:18:30;4.10;;;1.83;;
609;SDS011;292;48.800;9.216;2022-10-16T03:20:57;6.00;;;1.87;;
609;SDS011;292;48.800;9.216;2022-10-16T03:23:26;12.20;;;2.00;;
609;SDS011;292;48.800;9.216;2022-10-16T03:25:53;6.03;;;1.83;;
609;SDS011;292;48.800;9.216;2022-10-16T03:28:21;1.80;;;1.50;;
609;SDS011;292;48.800;9.216;2022-10-16T03:30:48;4.50;;;1.70;;
609;SDS011;292;48.800;9.216;2022-10-16T03:33:15;5.03;;;1.57;;
609;SDS011;292;48.800;9.216;2022-10-16T03:35:42;7.80;;;1.83;;
609;SDS011;292;48.800;9.216;2022-10-16T03:38:09;8.37;;;2.30;;
609;SDS011;292;48.800;9.216;2022-10-16T03:40:37;2.53;;;1.70;;
609;SDS011;292;48.800;9.216;2022-10-16T03:43:04;4.07;;;1.90;;
609;SDS011;292;48.800;9.216;2022-10-16T03:45:31;5.17;;;2.20;;
609;SDS011;292;48.800;9.216;2022-10-16T03:47:58;4.83;;;2.00;;
609;SDS011;292;48.800;9.216;2022-10-16T03:50:25;4.77;;;2.00;;
609;SDS011;292;48.800;9.216;2022-10-16T03:52:52;4.90;;;2.00;;
609;SDS011;292;48.800;9.216;2022-10-16T03:55:19;3.30;;;2.27;;
609;SDS011;292;48.800;9.216;2022-10-16T03:57:48;2.77;;;2.10;;
609;SDS011;292;48.800;9.216;2022-10-16T04:00:15;3.73;;;1.67;;
609;SDS011;292;48.800;9.216;2022-10-16T04:02:43;9.43;;;2.10;;
609;SDS011;292;48.800;9.216;2022-10-16T04:05:10;1.90;;;1.40;;
609;SDS011;292;48.800;9.216;2022-10-16T04:07:37;2.97;;;1.50;;
609;SDS011;292;48.800;9.216;2022-10-16T04:10:04;2.43;;;1.83;;
609;SDS011;292;48.800;9.216;2022-10-16T04:12:32;32.73;;;3.03;;
609;SDS011;292;48.800;9.216;2022-10-16T04:15:01;4.80;;;1.67;;
609;SDS011;292;48.800;9.216;2022-10-16T04:17:28;8.27;;;1.70;;
609;SDS011;292;48.800;9.216;2022-10-16T04:19:55;3.10;;;1.70;;
609;SDS011;292;48.800;9.216;2022-10-16T04:22:22;3.50;;;1.50;;
609;SDS011;292;48.800;9.216;2022-10-16T04:24:49;2.27;;;1.90;;
609;SDS011;292;48.800;9.216;2022-10-16T04:27:52;1.97;;;1.63;;
609;SDS011;292;48.800;9.216;2022-10-16T04:30:11;2.00;;;1.80;;
609;SDS011;292;48.800;9.216;2022-10-16T04:32:38;2.70;;;1.43;;
609;SDS011;292;48.800;9.216;2022-10-16T04:35:05;3.50;;;1.90;;
609;SDS011;292;48.800;9.216;2022-10-16T04:37:33;15.57;;;2.57;;
609;SDS011;292;48.800;9.216;2022-10-16T04:40:00;3.67;;;2.10;;
609;SDS011;292;48.800;9.216;2022-10-16T04:42:27;5.60;;;2.00;;
609;SDS011;292;48.800;9.216;2022-10-16T04:44:54;2.10;;;1.50;;
609;SDS011;292;48.800;9.216;2022-10-16T04:47:22;5.40;;;2.00;;
609;SDS011;292;48.800;9.216;2022-10-16T04:49:49;2.60;;;1.90;;
609;SDS011;292;48.800;9.216;2022-10-16T04:52:17;4.67;;;2.00;;
609;SDS011;292;48.800;9.216;2022-10-16T04:54:44;3.87;;;1.60;;
609;SDS011;292;48.800;9.216;2022-10-16T04:57:11;3.43;;;1.60;;
609;SDS011;292;48.800;9.216;2022-10-16T04:59:38;3.57;;;1.63;;
609;SDS011;292;48.800;9.216;2022-10-16T05:02:05;1.37;;;1.30;;
609;SDS011;292;48.800;9.216;2022-10-16T05:04:33;1.80;;;1.37;;
609;SDS011;292;48.800;9.216;2022-10-16T05:07:00;4.77;;;2.00;;
609;SDS011;292;48.800;9.216;2022-10-16T05:09:27;4.00;;;1.80;;
609;SDS011;292;48.800;9.216;2022-10-16T05:11:54;5.10;;;2.00;;
609;SDS011;292;48.800;9.216;2022-10-16T05:14:21;2.13;;;1.60;;
609;SDS011;292;48.800;9.216;2022-10-16T05:16:48;3.93;;;1.97;;
609;SDS011;292;48.800;9.216;2022-10-16T05:19:15;1.83;;;1.43;;
609;SDS011;292;48.800;9.216;2022-10-16T05:21:44;3.23;;;1.70;;
609;SDS011;292;48.800;9.216;2022-10-16T05:24:11;5.63;;;2.50;;
609;SDS011;292;48.800;9.216;2022-10-16T05:26:39;12.30;;;1.77;;
609;SDS011;292;48.800;9.216;2022-10-16T05:29:06;4.10;;;1.80;;
609;SDS011;292;48.800;9.216;2022-10-16T05:31:33;3.20;;;1.80;;
609;SDS011;292;48.800;9.216;2022-10-16T05:34:00;2.67;;;1.50;;
609;SDS011;292;48.800;9.216;2022-10-16T05:36:27;4.73;;;1.50;;
609;SDS011;292;48.800;9.216;2022-10-16T05:38:56;2.70;;;1.83;;
609;SDS011;292;48.800;9.216;2022-10-16T05:41:23;5.40;;;1.83;;
609;SDS011;292;48.800;9.216;2022-10-16T05:43:51;5.03;;;1.70;;
609;SDS011;292;48.800;9.216;2022-10-16T05:46:18;3.47;;;1.37;;
609;SDS011;292;48.800;9.216;2022-10-16T05:48:45;1.37;;;1.20;;
609;SDS011;292;48.800;9.216;2022-10-16T05:51:13;2.27;;;1.63;;
609;SDS011;292;48.800;9.216;2022-10-16T05:53:41;2.07;;;1.27;;
609;SDS011;292;48.800;9.216;2022-10-16T05:56:10;4.60;;;1.60;;
609;SDS011;292;48.800;9.216;2022-10-16T05:58:38;2.93;;;1.70;;
609;SDS011;292;48.800;9.216;2022-10-16T06:01:06;2.47;;;1.70;;
609;SDS011;292;48.800;9.216;2022-10-16T06:03:36;2.10;;;1.30;;
609;SDS011;292;48.800;9.216;2022-10-16T06:06:09;3.33;;;1.80;;
609;SDS011;292;48.800;9.216;2022-10-16T06:08:39;8.77;;;2.00;;
609;SDS011;292;48.800;9.216;2022-10-16T06:11:07;7.17;;;1.70;;
609;SDS011;292;48.800;9.216;2022-10-16T06:13:38;6.90;;;1.80;;
609;SDS011;292;48.800;9.216;2022-10-16T06:16:07;6.80;;;1.83;;
609;SDS011;292;48.800;9.216;2022-10-16T06:18:35;1.83;;;1.33;;
609;SDS011;292;48.800;9.216;2022-10-16T06:21:06;2.97;;;1.57;;
609;SDS011;292;48.800;9.216;2022-10-16T06:23:35;1.73;;;1.23;;
609;SDS011;292;48.800;9.216;2022-10-16T06:26:06;3.43;;;1.90;;
609;SDS011;292;48.800;9.216;2022-10-16T06:28:35;2.50;;;1.63;;
609;SDS011;292;48.800;9.216;2022-10-16T06:31:03;5.03;;;1.43;;
609;SDS011;292;48.800;9.216;2022-10-16T06:33:31;4.73;;;1.80;;
609;SDS011;292;48.800;9.216;2022-10-16T06:36:01;2.90;;;1.70;;
609;SDS011;292;48.800;9.216;2022-10-16T06:38:29;7.47;;;2.13;;
609;SDS011;292;48.800;9.216;2022-10-16T06:40:56;7.03;;;2.37;;
609;SDS011;292;48.800;9.216;2022-10-16T06:43:24;5.73;;;1.87;;
609;SDS011;292;48.800;9.216;2022-10-16T06:45:53;5.13;;;1.80;;
609;SDS011;292;48.800;9.216;2022-10-16T06:48:20;5.00;;;1.90;;
609;SDS011;292;48.800;9.216;2022-10-16T06:50:58;1.70;;;1.40;;
609;SDS011;292;48.800;9.216;2022-10-16T06:53:26;2.93;;;1.67;;
609;SDS011;292;48.800;9.216;2022-10-16T06:55:54;13.00;;;2.20;;
609;SDS011;292;48.800;9.216;2022-10-16T06:58:21;1.80;;;1.50;;
609;SDS011;292;48.800;9.216;2022-10-16T07:00:55;2.10;;;1.50;;
609;SDS011;292;48.800;9.216;2022-10-16T07:03:23;3.90;;;2.30;;
609;SDS011;292;48.800;9.216;2022-10-16T07:05:49;5.37;;;1.90;;
609;SDS011;292;48.800;9.216;2022-10-16T07:08:16;6.13;;;2.20;;
609;SDS011;292;48.800;9.216;2022-10-16T07:10:44;3.40;;;2.13;;
609;SDS011;292;48.800;9.216;2022-10-16T07:13:11;4.77;;;2.00;;
609;SDS011;292;48.800;9.216;2022-10-16T07:15:39;4.00;;;2.23;;
609;SDS011;292;48.800;9.216;2022-10-16T07:18:08;4.03;;;1.70;;
609;SDS011;292;48.800;9.216;2022-10-16T07:20:35;9.53;;;2.10;;
609;SDS011;292;48.800;9.216;2022-10-16T07:23:03;4.30;;;2.00;;
609;SDS011;292;48.800;9.216;2022-10-16T07:25:30;4.80;;;1.93;;
609;SDS011;292;48.800;9.216;2022-10-16T07:27:57;3.27;;;1.80;;
609;SDS011;292;48.800;9.216;2022-10-16T07:30:24;1.87;;;1.40;;
609;SDS011;292;48.800;9.216;2022-10-16T07:32:51;7.90;;;2.00;;
609;SDS011;292;48.800;9.216;2022-10-16T07:35:20;4.23;;;1.90;;
609;SDS011;292;48.800;9.216;2022-10-16T07:37:47;4.87;;;2.10;;
609;SDS011;292;48.800;9.216;2022-10-16T07:40:14;3.50;;;1.57;;
609;SDS011;292;48.800;9.216;2022-10-16T07:42:41;3.73;;;2.07;;
609;SDS011;292;48.800;9.216;2022-10-16T07:45:08;3.67;;;1.33;;
609;SDS011;292;48.800;9.216;2022-10-16T07:47:35;6.73;;;2.20;;
609;SDS011;292;48.800;9.216;2022-10-16T07:50:03;6.57;;;1.93;;
609;SDS011;292;48.800;9.216;2022-10-16T07:52:32;6.23;;;2.10;;
609;SDS011;292;48.800;9.216;2022-10-16T07:54:59;3.23;;;2.00;;
609;SDS011;292;48.800;9.216;2022-10-16T07:57:26;19.43;;;2.37;;
609;SDS011;292;48.800;9.216;2022-10-16T07:59:53;10.53;;;1.90;;
609;SDS011;292;48.800;9.216;2022-10-16T08:02:21;5.03;;;2.17;;
609;SDS011;292;48.800;9.216;2022-10-16T08:04:48;3.37;;;2.00;;
609;SDS011;292;48.800;9.216;2022-10-16T08:07:15;4.20;;;2.20;;
609;SDS011;292;48.800;9.216;2022-10-16T08:09:43;5.30;;;1.87;;
609;SDS011;292;48.800;9.216;2022-10-16T08:12:11;5.70;;;1.73;;
609;SDS011;292;48.800;9.216;2022-10-16T08:14:38;4.40;;;1.83;;
609;SDS011;292;48.800;9.216;2022-10-16T08:17:05;5.37;;;2.00;;
609;SDS011;292;48.800;9.216;2022-10-16T08:19:32;6.10;;;2.20;;
609;SDS011;292;48.800;9.216;2022-10-16T08:21:59;7.40;;;2.07;;
609;SDS011;292;48.800;9.216;2022-10-16T08:24:27;2.23;;;1.67;;
609;SDS011;292;48.800;9.216;2022-10-16T08:26:57;3.07;;;1.60;;
609;SDS011;292;48.800;9.216;2022-10-16T08:29:24;7.00;;;1.60;;
609;SDS011;292;48.800;9.216;2022-10-16T08:31:51;3.33;;;1.80;;
609;SDS011;292;48.800;9.216;2022-10-16T08:34:18;4.40;;;2.00;;
609;SDS011;292;48.800;9.216;2022-10-16T08:36:45;2.37;;;1.80;;
609;SDS011;292;48.800;9.216;2022-10-16T08:39:12;4.83;;;1.90;;
609;SDS011;292;48.800;9.216;2022-10-16T08:41:53;3.43;;;1.60;;
609;SDS011;292;48.800;9.216;2022-10-16T08:44:35;4.73;;;1.40;;
609;SDS011;292;48.800;9.216;2022-10-16T08:47:17;4.43;;;1.67;;
609;SDS011;292;48.800;9.216;2022-10-16T08:49:55;2.70;;;1.60;;
609;SDS011;292;48.800;9.216;2022-10-16T08:52:25;9.20;;;1.80;;
609;SDS011;292;48.800;9.216;2022-10-16T08:54:58;3.53;;;1.90;;
609;SDS011;292;48.800;9.216;2022-10-16T08:57:27;2.73;;;1.50;;
609;SDS011;292;48.800;9.216;2022-10-16T08:59:56;3.30;;;1.73;;
609;SDS011;292;48.800;9.216;2022-10-16T09:02:28;5.47;;;1.60;;
609;SDS011;292;48.800;9.216;2022-10-16T09:05:02;3.37;;;1.53;;
609;SDS011;292;48.800;9.216;2022-10-16T09:07:55;3.40;;;1.53;;
609;SDS011;292;48.800;9.216;2022-10-16T09:10:31;4.97;;;1.50;;
609;SDS011;292;48.800;9.216;2022-10-16T09:13:11;6.90;;;1.80;;
609;SDS011;292;48.800;9.216;2022-10-16T09:15:46;5.67;;;1.80;;
609;SDS011;292;48.800;9.216;2022-10-16T09:18:22;7.40;;;1.97;;
609;SDS011;292;48.800;9.216;2022-10-16T09:20:57;3.07;;;1.53;;
609;SDS011;292;48.800;9.216;2022-10-16T09:23:28;5.80;;;1.70;;
609;SDS011;292;48.800;9.216;2022-10-16T09:25:56;6.70;;;1.87;;
609;SDS011;292;48.800;9.216;2022-10-16T09:28:27;2.50;;;1.60;;
609;SDS011;292;48.800;9.216;2022-10-16T09:30:54;4.70;;;1.50;;
609;SDS011;292;48.800;9.216;2022-10-16T09:33:22;3.73;;;1.40;;
609;SDS011;292;48.800;9.216;2022-10-16T09:35:54;4.50;;;1.63;;
609;SDS011;292;48.800;9.216;2022-10-16T09:38:24;4.83;;;1.67;;
609;SDS011;292;48.800;9.216;2022-10-16T09:40:53;6.37;;;1.73;;
609;SDS011;292;48.800;9.216;2022-10-16T09:43:22;2.00;;;1.37;;
609;SDS011;292;48.800;9.216;2022-10-16T09:45:55;2.27;;;1.30;;
609;SDS011;292;48.800;9.216;2022-10-16T09:48:23;6.40;;;1.73;;
609;SDS011;292;48.800;9.216;2022-10-16T09:50:56;3.00;;;1.30;;
609;SDS011;292;48.800;9.216;2022-10-16T09:53:25;2.27;;;1.40;;
609;SDS011;292;48.800;9.216;2022-10-16T09:56:04;2.60;;;1.50;;
609;SDS011;292;48.800;9.216;2022-10-16T09:58:32;4.83;;;1.40;;
609;SDS011;292;48.800;9.216;2022-10-16T10:01:01;3.93;;;1.60;;
609;SDS011;292;48.800;9.216;2022-10-16T10:03:32;2.70;;;1.50;;
609;SDS011;292;48.800;9.216;2022-10-16T10:06:04;3.30;;;1.43;;
609;SDS011;292;48.800;9.216;2022-10-16T10:08:41;4.13;;;1.47;;
609;SDS011;292;48.800;9.216;2022-10-16T10:11:46;4.20;;;1.40;;
609;SDS011;292;48.800;9.216;2022-10-16T10:14:20;3.33;;;1.50;;
609;SDS011;292;48.800;9.216;2022-10-16T10:16:51;2.60;;;1.40;;
609;SDS011;292;48.800;9.216;2022-10-16T10:19:27;2.73;;;1.63;;
609;SDS011;292;48.800;9.216;2022-10-16T10:21:54;16.37;;;1.77;;
609;SDS011;292;48.800;9.216;2022-10-16T10:24:21;2.13;;;1.20;;
609;SDS011;292;48.800;9.216;2022-10-16T10:26:51;4.00;;;1.50;;
609;SDS011;292;48.800;9.216;2022-10-16T10:29:27;2.73;;;1.63;;
609;SDS011;292;48.800;9.216;2022-10-16T10:32:15;3.50;;;1.50;;
609;SDS011;292;48.800;9.216;2022-10-16T10:34:56;5.67;;;1.77;;
609;SDS011;292;48.800;9.216;2022-10-16T10:37:34;4.63;;;1.43;;
609;SDS011;292;48.800;9.216;2022-10-16T10:40:16;7.67;;;1.70;;
609;SDS011;292;48.800;9.216;2022-10-16T10:42:57;2.37;;;1.40;;
609;SDS011;292;48.800;9.216;2022-10-16T10:45:37;2.70;;;1.37;;
609;SDS011;292;48.800;9.216;2022-10-16T10:48:19;5.03;;;1.50;;
609;SDS011;292;48.800;9.216;2022-10-16T10:50:58;3.00;;;1.50;;
609;SDS011;292;48.800;9.216;2022-10-16T10:53:33;3.03;;;1.30;;
609;SDS011;292;48.800;9.216;2022-10-16T10:56:08;4.40;;;1.53;;
609;SDS011;292;48.800;9.216;2022-10-16T11:01:50;2.30;;;0.80;;
609;SDS011;292;48.800;9.216;2022-10-16T11:07:14;5.23;;;1.10;;
609;SDS011;292;48.800;9.216;2022-10-16T11:09:45;2.23;;;1.17;;
609;SDS011;292;48.800;9.216;2022-10-16T11:12:21;5.83;;;1.30;;
609;SDS011;292;48.800;9.216;2022-10-16T11:14:54;3.33;;;1.30;;
609;SDS011;292;48.800;9.216;2022-10-16T11:17:31;4.30;;;1.97;;
609;SDS011;292;48.800;9.216;2022-10-16T11:20:05;4.90;;;2.07;;
609;SDS011;292;48.800;9.216;2022-10-16T11:22:50;2.70;;;1.70;;
609;SDS011;292;48.800;9.216;2022-10-16T11:25:21;2.27;;;1.30;;
609;SDS011;292;48.800;9.216;2022-10-16T11:27:52;2.40;;;1.40;;
609;SDS011;292;48.800;9.216;2022-10-16T11:30:25;2.20;;;1.30;;
609;SDS011;292;48.800;9.216;2022-10-16T11:33:00;1.83;;;1.10;;
609;SDS011;292;48.800;9.216;2022-10-16T11:35:39;2.40;;;1.23;;
609;SDS011;292;48.800;9.216;2022-10-16T11:38:12;4.50;;;1.60;;
609;SDS011;292;48.800;9.216;2022-10-16T11:40:45;4.00;;;1.40;;
609;SDS011;292;48.800;9.216;2022-10-16T11:43:21;4.00;;;1.97;;
609;SDS011;292;48.800;9.216;2022-10-16T11:45:51;2.97;;;1.10;;
609;SDS011;292;48.800;9.216;2022-10-16T11:48:23;1.57;;;1.20;;
609;SDS011;292;48.800;9.216;2022-10-16T11:50:58;2.90;;;1.40;;
609;SDS011;292;48.800;9.216;2022-10-16T11:53:35;4.93;;;1.20;;
609;SDS011;292;48.800;9.216;2022-10-16T11:56:10;2.90;;;1.23;;
609;SDS011;292;48.800;9.216;2022-10-16T11:58:40;2.10;;;1.00;;
609;SDS011;292;48.800;9.216;2022-10-16T12:01:16;1.50;;;1.47;;
609;SDS011;292;48.800;9.216;2022-10-16T12:03:58;1.10;;;1.00;;
609;SDS011;292;48.800;9.216;2022-10-16T12:06:39;3.20;;;1.27;;
609;SDS011;292;48.800;9.216;2022-10-16T12:09:10;3.37;;;1.40;;
609;SDS011;292;48.800;9.216;2022-10-16T12:11:48;5.23;;;1.33;;
609;SDS011;292;48.800;9.216;2022-10-16T12:14:19;1.27;;;1.10;;
609;SDS011;292;48.800;9.216;2022-10-16T12:16:59;3.60;;;1.40;;
609;SDS011;292;48.800;9.216;2022-10-16T12:19:28;2.27;;;1.13;;
609;SDS011;292;48.800;9.216;2022-10-16T12:21:58;1.60;;;1.33;;
609;SDS011;292;48.800;9.216;2022-10-16T12:24:31;2.50;;;1.07;;
609;SDS011;292;48.800;9.216;2022-10-16T12:27:00;1.20;;;1.10;;
609;SDS011;292;48.800;9.216;2022-10-16T12:29:31;2.70;;;1.10;;
609;SDS011;292;48.800;9.216;2022-10-16T12:32:00;2.33;;;0.97;;
609;SDS011;292;48.800;9.216;2022-10-16T12:34:29;2.37;;;1.27;;
609;SDS011;292;48.800;9.216;2022-10-16T12:37:09;3.90;;;1.40;;
609;SDS011;292;48.800;9.216;2022-10-16T12:39:39;2.10;;;1.20;;
609;SDS011;292;48.800;9.216;2022-10-16T12:42:19;4.70;;;1.20;;
609;SDS011;292;48.800;9.216;2022-10-16T12:44:48;1.60;;;1.00;;
609;SDS011;292;48.800;9.216;2022-10-16T12:47:19;2.50;;;1.37;;
609;SDS011;292;48.800;9.216;2022-10-16T12:49:48;1.60;;;1.20;;
609;SDS011;292;48.800;9.216;2022-10-16T12:55:03;2.50;;;1.00;;
609;SDS011;292;48.800;9.216;2022-10-16T12:57:41;1.63;;;1.30;;
609;SDS011;292;48.800;9.216;2022-10-16T13:00:18;2.13;;;1.20;;
609;SDS011;292;48.800;9.216;2022-10-16T13:02:55;2.73;;;1.40;;
609;SDS011;292;48.800;9.216;2022-10-16T13:05:49;4.07;;;1.43;;
609;SDS011;292;48.800;9.216;2022-10-16T13:08:33;3.67;;;1.53;;
609;SDS011;292;48.800;9.216;2022-10-16T13:11:11;3.10;;;1.07;;
609;SDS011;292;48.800;9.216;2022-10-16T13:13:54;3.33;;;1.23;;
609;SDS011;292;48.800;9.216;2022-10-16T13:16:36;1.80;;;1.40;;
609;SDS011;292;48.800;9.216;2022-10-16T13:19:18;2.40;;;1.47;;
609;SDS011;292;48.800;9.216;2022-10-16T13:21:56;1.90;;;1.33;;
609;SDS011;292;48.800;9.216;2022-10-16T13:24:34;1.33;;;1.30;;
609;SDS011;292;48.800;9.216;2022-10-16T13:27:14;3.83;;;1.50;;
609;SDS011;292;48.800;9.216;2022-10-16T13:29:52;4.10;;;1.30;;
609;SDS011;292;48.800;9.216;2022-10-16T13:32:26;3.00;;;1.60;;
609;SDS011;292;48.800;9.216;2022-10-16T13:34:54;2.00;;;1.30;;
609;SDS011;292;48.800;9.216;2022-10-16T13:37:21;1.93;;;1.20;;
609;SDS011;292;48.800;9.216;2022-10-16T13:40:01;2.67;;;1.63;;
609;SDS011;292;48.800;9.216;2022-10-16T13:42:34;2.13;;;1.50;;
609;SDS011;292;48.800;9.216;2022-10-16T13:45:01;2.53;;;1.60;;
609;SDS011;292;48.800;9.216;2022-10-16T13:47:28;5.40;;;1.40;;
609;SDS011;292;48.800;9.216;2022-10-16T13:49:59;2.97;;;1.60;;
609;SDS011;292;48.800;9.216;2022-10-16T13:52:27;3.23;;;1.90;;
609;SDS011;292;48.800;9.216;2022-10-16T13:54:54;1.87;;;1.10;;
609;SDS011;292;48.800;9.216;2022-10-16T13:57:23;3.90;;;1.27;;
609;SDS011;292;48.800;9.216;2022-10-16T13:59:51;2.03;;;1.70;;
609;SDS011;292;48.800;9.216;2022-10-16T14:02:20;3.30;;;1.73;;
609;SDS011;292;48.800;9.216;2022-10-16T14:04:51;13.73;;;5.70;;
609;SDS011;292;48.800;9.216;2022-10-16T14:07:21;9.97;;;5.00;;
609;SDS011;292;48.800;9.216;2022-10-16T14:09:50;10.07;;;4.47;;
609;SDS011;292;48.800;9.216;2022-10-16T14:12:20;5.00;;;2.90;;
609;SDS011;292;48.800;9.216;2022-10-16T14:14:50;10.57;;;4.07;;
609;SDS011;292;48.800;9.216;2022-10-16T14:17:19;5.50;;;3.30;;
609;SDS011;292;48.800;9.216;2022-10-16T14:19:49;9.50;;;4.47;;
609;SDS011;292;48.800;9.216;2022-10-16T14:22:23;7.83;;;3.73;;
609;SDS011;292;48.800;9.216;2022-10-16T14:24:55;3.10;;;2.40;;
609;SDS011;292;48.800;9.216;2022-10-16T14:27:26;4.83;;;2.13;;
609;SDS011;292;48.800;9.216;2022-10-16T14:30:08;7.50;;;4.30;;
609;SDS011;292;48.800;9.216;2022-10-16T14:32:40;15.43;;;7.30;;
609;SDS011;292;48.800;9.216;2022-10-16T14:35:21;11.40;;;6.27;;
609;SDS011;292;48.800;9.216;2022-10-16T14:37:51;8.30;;;4.87;;
609;SDS011;292;48.800;9.216;2022-10-16T14:40:19;9.30;;;5.37;;
609;SDS011;292;48.800;9.216;2022-10-16T14:42:51;11.93;;;4.90;;
609;SDS011;292;48.800;9.216;2022-10-16T14:45:19;14.03;;;6.00;;
609;SDS011;292;48.800;9.216;2022-10-16T14:47:48;27.90;;;13.70;;
609;SDS011;292;48.800;9.216;2022-10-16T14:50:17;22.20;;;10.10;;
609;SDS011;292;48.800;9.216;2022-10-16T14:52:44;13.30;;;6.57;;
609;SDS011;292;48.800;9.216;2022-10-16T14:55:11;8.73;;;4.63;;
609;SDS011;292;48.800;9.216;2022-10-16T14:57:38;5.60;;;3.00;;
609;SDS011;292;48.800;9.216;2022-10-16T15:00:20;7.70;;;3.53;;
609;SDS011;292;48.800;9.216;2022-10-16T15:02:49;8.83;;;4.60;;
609;SDS011;292;48.800;9.216;2022-10-16T15:05:18;7.50;;;3.13;;
609;SDS011;292;48.800;9.216;2022-10-16T15:07:47;6.03;;;3.60;;
609;SDS011;292;48.800;9.216;2022-10-16T15:10:15;5.10;;;3.00;;
609;SDS011;292;48.800;9.216;2022-10-16T15:12:44;6.17;;;4.00;;
609;SDS011;292;48.800;9.216;2022-10-16T15:15:20;7.33;;;2.97;;
609;SDS011;292;48.800;9.216;2022-10-16T15:17:52;6.00;;;3.10;;
609;SDS011;292;48.800;9.216;2022-10-16T15:20:21;4.43;;;2.93;;
609;SDS011;292;48.800;9.216;2022-10-16T15:22:48;6.43;;;3.00;;
609;SDS011;292;48.800;9.216;2022-10-16T15:25:18;4.43;;;2.77;;
609;SDS011;292;48.800;9.216;2022-10-16T15:27:55;4.93;;;2.97;;
609;SDS011;292;48.800;9.216;2022-10-16T15:30:24;7.03;;;3.17;;
609;SDS011;292;48.800;9.216;2022-10-16T15:32:51;8.97;;;3.00;;
609;SDS011;292;48.800;9.216;2022-10-16T15:35:19;3.70;;;2.80;;
609;SDS011;292;48.800;9.216;2022-10-16T15:37:46;3.80;;;2.70;;
609;SDS011;292;48.800;9.216;2022-10-16T15:40:14;5.90;;;3.20;;
609;SDS011;292;48.800;9.216;2022-10-16T15:42:42;4.30;;;2.87;;
609;SDS011;292;48.800;9.216;2022-10-16T15:45:09;3.80;;;2.37;;
609;SDS011;292;48.800;9.216;2022-10-16T15:47:38;3.30;;;2.10;;
609;SDS011;292;48.800;9.216;2022-10-16T15:50:05;6.43;;;2.60;;
609;SDS011;292;48.800;9.216;2022-10-16T15:52:33;2.90;;;2.07;;
609;SDS011;292;48.800;9.216;2022-10-16T15:55:10;3.80;;;2.43;;
609;SDS011;292;48.800;9.216;2022-10-16T15:57:39;3.90;;;2.40;;
609;SDS011;292;48.800;9.216;2022-10-16T16:00:08;3.43;;;2.30;;
609;SDS011;292;48.800;9.216;2022-10-16T16:02:38;4.07;;;2.10;;
609;SDS011;292;48.800;9.216;2022-10-16T16:05:06;7.13;;;2.63;;
609;SDS011;292;48.800;9.216;2022-10-16T16:07:34;6.53;;;2.87;;
609;SDS011;292;48.800;9.216;2022-10-16T16:10:03;3.67;;;2.50;;
609;SDS011;292;48.800;9.216;2022-10-16T16:12:32;4.90;;;2.90;;
609;SDS011;292;48.800;9.216;2022-10-16T16:14:59;7.13;;;3.30;;